createdAt,value
2022-11-15T00:00:48.091Z,4.35
2022-11-15T00:03:33.949Z,4.31
2022-11-15T00:06:19.625Z,4.22
2022-11-15T00:09:05.107Z,4.21
2022-11-15T00:11:50.164Z,4.48
2022-11-15T00:14:35.518Z,3.87
2022-11-15T00:17:21.007Z,4.44
2022-11-15T00:20:06.825Z,3.99
2022-11-15T00:22:52.165Z,4.23
2022-11-15T00:25:37.515Z,4.09
2022-11-15T00:28:22.913Z,4.37
2022-11-15T00:31:12.433Z,4.30
2022-11-15T00:33:57.909Z,4.25
2022-11-15T00:36:43.203Z,4.40
2022-11-15T00:39:28.727Z,4.36
2022-11-15T00:42:14.312Z,4.37
2022-11-15T00:44:59.605Z,4.34
2022-11-15T00:47:47.360Z,4.22
2022-11-15T00:50:33.115Z,4.41
2022-11-15T00:53:18.904Z,4.28
2022-11-15T00:56:04.879Z,4.36
2022-11-15T00:58:50.452Z,4.35
2022-11-15T01:01:36.001Z,4.13
2022-11-15T01:04:20.957Z,4.22
2022-11-15T01:07:06.612Z,4.01
2022-11-15T01:09:52.063Z,4.02
2022-11-15T01:12:37.917Z,3.87
2022-11-15T01:15:23.096Z,4.10
2022-11-15T01:18:08.846Z,3.91
2022-11-15T01:20:54.405Z,4.15
2022-11-15T01:23:40.727Z,3.97
2022-11-15T01:26:26.619Z,3.99
2022-11-15T01:29:12.035Z,3.97
2022-11-15T01:31:57.599Z,3.83
2022-11-15T01:34:42.994Z,4.02
2022-11-15T01:37:28.368Z,4.00
2022-11-15T01:40:13.957Z,3.91
2022-11-15T01:42:59.520Z,3.97
2022-11-15T01:45:46.660Z,4.04
2022-11-15T01:48:35.076Z,4.08
2022-11-15T01:51:23.153Z,4.09
2022-11-15T01:54:13.587Z,4.00
2022-11-15T01:57:04.622Z,3.86
2022-11-15T01:59:50.055Z,4.01
2022-11-15T02:02:38.195Z,3.80
2022-11-15T02:05:23.781Z,3.96
2022-11-15T02:08:21.114Z,4.00
2022-11-15T02:11:10.318Z,4.00
2022-11-15T02:13:57.931Z,3.88
2022-11-15T02:17:01.226Z,3.95
2022-11-15T02:20:21.009Z,3.94
2022-11-15T02:23:49.355Z,3.95
2022-11-15T02:26:50.083Z,3.89
2022-11-15T02:30:05.041Z,3.90
2022-11-15T02:33:04.277Z,3.91
2022-11-15T02:35:49.909Z,4.02
2022-11-15T02:38:38.238Z,3.96
2022-11-15T02:41:39.287Z,4.06
2022-11-15T02:44:36.390Z,3.83
2022-11-15T02:47:23.502Z,3.98
2022-11-15T02:50:13.445Z,3.91
2022-11-15T02:52:59.119Z,3.90
2022-11-15T02:55:52.253Z,3.82
2022-11-15T02:58:57.581Z,3.63
2022-11-15T03:02:02.039Z,3.94
2022-11-15T03:04:50.677Z,3.76
2022-11-15T03:07:58.183Z,3.73
2022-11-15T03:11:08.344Z,3.66
2022-11-15T03:14:09.007Z,3.71
2022-11-15T03:17:15.219Z,3.56
2022-11-15T03:20:05.127Z,3.78
2022-11-15T03:22:52.250Z,3.83
2022-11-15T03:25:44.869Z,3.77
2022-11-15T03:28:56.733Z,3.78
2022-11-15T03:31:50.895Z,3.58
2022-11-15T03:34:51.058Z,3.74
2022-11-15T03:37:39.254Z,3.76
2022-11-15T03:40:37.520Z,3.77
2022-11-15T03:43:44.245Z,3.72
2022-11-15T03:46:48.908Z,3.67
2022-11-15T03:49:36.630Z,3.58
2022-11-15T03:52:23.414Z,3.70
2022-11-15T03:55:14.073Z,3.69
2022-11-15T03:58:01.331Z,3.68
2022-11-15T04:00:47.081Z,3.64
2022-11-15T04:03:32.695Z,3.75
2022-11-15T04:06:18.531Z,3.80
2022-11-15T04:09:04.372Z,3.72
2022-11-15T04:11:50.004Z,3.68
2022-11-15T04:14:35.574Z,3.57
2022-11-15T04:17:21.000Z,3.62
2022-11-15T04:20:36.917Z,3.48
2022-11-15T04:23:42.677Z,3.64
2022-11-15T04:26:28.252Z,3.46
2022-11-15T04:29:32.122Z,3.41
2022-11-15T04:32:17.730Z,3.66
2022-11-15T04:35:03.322Z,3.61
2022-11-15T04:37:49.592Z,3.66
2022-11-15T04:40:35.649Z,3.38
2022-11-15T04:43:21.301Z,3.38
2022-11-15T04:46:06.796Z,3.22
2022-11-15T04:48:58.284Z,3.11
2022-11-15T04:51:44.393Z,3.29
2022-11-15T04:54:30.270Z,3.59
2022-11-15T04:57:15.967Z,3.25
2022-11-15T05:00:01.171Z,3.40
2022-11-15T05:03:05.223Z,3.49
2022-11-15T05:05:50.893Z,3.34
2022-11-15T05:08:36.369Z,3.62
2022-11-15T05:11:22.859Z,3.60
2022-11-15T05:14:08.447Z,3.39
2022-11-15T05:16:54.021Z,3.31
2022-11-15T05:19:39.599Z,3.58
2022-11-15T05:22:25.179Z,3.57
2022-11-15T05:25:10.806Z,3.53
2022-11-15T05:27:56.498Z,3.51
2022-11-15T05:30:42.094Z,3.42
2022-11-15T05:33:27.693Z,3.39
2022-11-15T05:36:13.718Z,3.56
2022-11-15T05:38:59.156Z,3.60
2022-11-15T05:41:47.120Z,3.62
2022-11-15T05:44:33.165Z,3.51
2022-11-15T05:47:23.706Z,3.56
2022-11-15T05:50:15.479Z,3.50
2022-11-15T05:53:05.291Z,3.46
2022-11-15T05:55:51.032Z,3.34
2022-11-15T05:58:37.737Z,3.54
2022-11-15T06:01:25.851Z,3.47
2022-11-15T06:04:11.173Z,3.42
2022-11-15T06:06:56.995Z,3.44
2022-11-15T06:09:42.879Z,3.43
2022-11-15T06:12:28.408Z,3.53
2022-11-15T06:15:13.741Z,3.55
2022-11-15T06:18:00.255Z,3.67
2022-11-15T06:20:45.528Z,3.53
2022-11-15T06:23:35.856Z,3.63
2022-11-15T06:26:21.418Z,3.82
2022-11-15T06:29:07.011Z,3.67
2022-11-15T06:31:52.462Z,3.72
2022-11-15T06:34:37.985Z,3.90
2022-11-15T06:37:23.394Z,4.02
2022-11-15T06:40:10.655Z,3.95
2022-11-15T06:43:00.528Z,4.08
2022-11-15T06:45:46.308Z,4.22
2022-11-15T06:48:33.184Z,4.47
2022-11-15T06:51:18.725Z,4.60
2022-11-15T06:54:04.198Z,4.61
2022-11-15T06:56:49.902Z,4.60
2022-11-15T06:59:40.283Z,4.78
2022-11-15T07:02:26.485Z,4.81
2022-11-15T07:05:12.651Z,4.96
2022-11-15T07:07:59.649Z,5.21
2022-11-15T07:10:45.299Z,5.34
2022-11-15T07:13:36.399Z,5.47
2022-11-15T07:16:22.229Z,5.32
2022-11-15T07:19:09.478Z,5.70
2022-11-15T07:21:54.846Z,5.55
2022-11-15T07:24:40.376Z,5.78
2022-11-15T07:27:25.749Z,5.83
2022-11-15T07:30:15.313Z,6.17
2022-11-15T07:33:01.885Z,6.38
2022-11-15T07:35:50.072Z,6.54
2022-11-15T07:38:42.549Z,6.69
2022-11-15T07:41:27.967Z,6.83
2022-11-15T07:44:13.540Z,6.71
2022-11-15T07:46:59.267Z,7.02
2022-11-15T07:49:45.002Z,6.97
2022-11-15T07:52:30.752Z,7.50
2022-11-15T07:55:16.083Z,7.55
2022-11-15T07:58:05.945Z,7.74
2022-11-15T08:00:51.371Z,7.88
2022-11-15T08:03:37.224Z,8.02
2022-11-15T08:06:22.660Z,8.09
2022-11-15T08:09:08.216Z,8.35
2022-11-15T08:11:53.846Z,8.67
2022-11-15T08:14:39.643Z,8.82
2022-11-15T08:17:25.420Z,8.79
2022-11-15T08:20:11.484Z,9.15
2022-11-15T08:23:01.921Z,9.28
2022-11-15T08:25:47.854Z,9.40
2022-11-15T08:28:33.881Z,9.54
2022-11-15T08:31:20.022Z,9.45
2022-11-15T08:34:06.806Z,9.76
2022-11-15T08:36:52.192Z,9.83
2022-11-15T08:39:39.019Z,9.91
2022-11-15T08:42:24.252Z,9.87
2022-11-15T08:45:10.577Z,10.05
2022-11-15T08:47:57.005Z,10.12
2022-11-15T08:50:44.734Z,10.22
2022-11-15T08:53:30.433Z,10.34
2022-11-15T08:56:16.717Z,10.43
2022-11-15T08:59:02.410Z,10.28
2022-11-15T09:01:47.929Z,10.62
2022-11-15T09:04:33.628Z,10.73
2022-11-15T09:07:19.338Z,10.66
2022-11-15T09:10:05.356Z,11.00
2022-11-15T09:12:51.074Z,11.11
2022-11-15T09:15:36.474Z,11.20
2022-11-15T09:18:23.490Z,11.23
2022-11-15T09:21:09.727Z,11.46
2022-11-15T09:23:55.479Z,11.19
2022-11-15T09:29:41.344Z,11.68
2022-11-15T09:32:36.259Z,11.96
2022-11-15T09:35:24.493Z,11.99
2022-11-15T09:38:09.990Z,12.27
2022-11-15T09:41:12.898Z,12.37
2022-11-15T09:44:26.069Z,12.55
2022-11-15T09:47:36.729Z,12.68
2022-11-15T09:50:47.912Z,12.80
2022-11-15T09:53:50.727Z,12.85
2022-11-15T09:56:27.036Z,13.05
2022-11-15T09:59:15.612Z,13.16
2022-11-15T10:02:19.818Z,13.31
2022-11-15T10:04:47.155Z,13.28
2022-11-15T10:07:42.828Z,13.31
2022-11-15T10:10:09.600Z,13.62
2022-11-15T10:12:36.594Z,13.48
2022-11-15T10:15:11.623Z,13.73
2022-11-15T10:17:55.236Z,13.89
2022-11-15T10:20:26.312Z,13.94
2022-11-15T10:23:01.204Z,14.10
2022-11-15T10:25:29.703Z,14.17
2022-11-15T10:28:02.221Z,14.22
2022-11-15T10:30:37.008Z,14.00
2022-11-15T10:33:16.557Z,14.43
2022-11-15T10:35:43.750Z,14.29
2022-11-15T10:38:12.633Z,14.58
2022-11-15T10:43:27.365Z,14.56
2022-11-15T10:45:54.406Z,14.61
2022-11-15T10:48:24.333Z,14.76
2022-11-15T10:50:53.242Z,14.80
2022-11-15T10:53:25.144Z,15.01
2022-11-15T10:55:56.305Z,15.01
2022-11-15T10:58:41.272Z,15.16
2022-11-15T11:01:12.565Z,15.17
2022-11-15T11:03:41.799Z,15.07
2022-11-15T11:06:12.439Z,14.91
2022-11-15T11:08:39.914Z,14.74
2022-11-15T11:11:08.705Z,14.77
2022-11-15T11:13:40.627Z,15.11
2022-11-15T11:16:22.988Z,14.85
2022-11-15T11:18:55.678Z,15.11
2022-11-15T11:21:39.594Z,15.18
2022-11-15T11:24:33.270Z,15.11
2022-11-15T11:27:13.728Z,15.24
2022-11-15T11:29:49.582Z,15.34
2022-11-15T11:32:44.253Z,15.37
2022-11-15T11:35:21.142Z,15.32
2022-11-15T11:37:55.978Z,15.16
2022-11-15T11:40:44.475Z,15.50
2022-11-15T11:43:30.251Z,15.49
2022-11-15T11:46:32.011Z,15.33
2022-11-15T11:49:23.027Z,15.48
2022-11-15T11:51:56.982Z,15.56
2022-11-15T11:54:41.449Z,15.56
2022-11-15T11:57:23.532Z,15.34
2022-11-15T12:00:21.335Z,15.66
2022-11-15T12:03:19.518Z,15.66
2022-11-15T12:05:55.577Z,15.53
2022-11-15T12:08:40.136Z,15.65
2022-11-15T12:11:24.287Z,15.81
2022-11-15T12:13:59.384Z,15.64
2022-11-15T12:16:34.447Z,15.64
2022-11-15T12:19:03.647Z,15.84
2022-11-15T12:21:40.888Z,15.95
2022-11-15T12:24:26.454Z,15.82
2022-11-15T12:27:00.231Z,15.90
2022-11-15T12:29:30.332Z,15.99
2022-11-15T12:32:00.981Z,15.86
2022-11-15T12:34:43.060Z,16.03
2022-11-15T12:37:41.736Z,16.05
2022-11-15T12:40:19.476Z,16.07
2022-11-15T12:43:02.584Z,15.99
2022-11-15T12:45:29.589Z,16.03
2022-11-15T12:48:19.562Z,16.01
2022-11-15T12:50:55.380Z,16.01
2022-11-15T12:53:25.531Z,15.93
2022-11-15T12:56:21.299Z,16.04
2022-11-15T12:58:51.161Z,15.99
2022-11-15T13:01:44.485Z,15.99
2022-11-15T13:04:14.413Z,16.00
2022-11-15T13:06:47.852Z,15.96
2022-11-15T13:09:30.232Z,15.90
2022-11-15T13:11:58.880Z,15.81
2022-11-15T13:14:38.003Z,15.87
2022-11-15T13:17:20.166Z,15.64
2022-11-15T13:19:49.819Z,15.21
2022-11-15T13:22:35.573Z,15.16
2022-11-15T13:25:02.901Z,15.32
2022-11-15T13:27:30.127Z,15.35
2022-11-15T13:29:57.066Z,15.12
2022-11-15T13:32:24.275Z,15.13
2022-11-15T13:34:53.934Z,14.78
2022-11-15T13:37:20.859Z,14.68
2022-11-15T13:39:51.329Z,14.41
2022-11-15T13:42:20.256Z,14.19
2022-11-15T13:44:59.741Z,14.03
2022-11-15T13:47:29.050Z,13.37
2022-11-15T13:49:59.043Z,13.17
2022-11-15T13:52:34.079Z,12.84
2022-11-15T13:55:09.224Z,12.83
2022-11-15T13:57:38.914Z,13.05
2022-11-15T14:00:23.699Z,12.94
2022-11-15T14:02:51.115Z,12.84
2022-11-15T14:05:24.760Z,12.55
2022-11-15T14:08:14.639Z,12.39
2022-11-15T14:10:41.541Z,12.36
2022-11-15T14:13:32.409Z,12.54
2022-11-15T14:16:20.946Z,12.18
2022-11-15T14:18:49.344Z,12.42
2022-11-15T14:21:19.153Z,12.12
2022-11-15T14:23:46.795Z,12.14
2022-11-15T14:26:36.274Z,11.90
2022-11-15T14:29:28.109Z,11.93
2022-11-15T14:32:08.072Z,11.74
2022-11-15T14:34:35.005Z,11.64
2022-11-15T14:37:01.836Z,11.17
2022-11-15T14:39:29.143Z,11.04
2022-11-15T14:41:56.031Z,10.90
2022-11-15T14:44:23.225Z,10.85
2022-11-15T14:46:50.087Z,11.05
2022-11-15T14:49:17.412Z,10.92
2022-11-15T14:51:44.418Z,10.67
2022-11-15T14:54:11.889Z,10.75
2022-11-15T14:56:38.760Z,10.81
2022-11-15T14:59:05.747Z,10.36
2022-11-15T15:01:33.192Z,10.55
2022-11-15T15:04:00.567Z,10.32
2022-11-15T15:06:27.810Z,10.51
2022-11-15T15:08:54.917Z,10.18
2022-11-15T15:11:25.067Z,10.46
2022-11-15T15:13:53.211Z,10.18
2022-11-15T15:16:20.864Z,10.42
2022-11-15T15:18:47.821Z,9.79
2022-11-15T15:21:20.809Z,10.35
2022-11-15T15:23:47.908Z,10.17
2022-11-15T15:26:14.908Z,9.94
2022-11-15T15:28:42.195Z,10.15
2022-11-15T15:31:10.872Z,9.81
2022-11-15T15:33:38.520Z,9.87
2022-11-15T15:36:06.322Z,9.61
2022-11-15T15:38:33.565Z,9.62
2022-11-15T15:41:02.982Z,9.51
2022-11-15T15:43:30.025Z,9.41
2022-11-15T15:45:56.924Z,9.48
2022-11-15T15:48:23.869Z,9.41
2022-11-15T15:50:50.861Z,9.34
2022-11-15T15:53:18.487Z,9.16
2022-11-15T15:55:45.400Z,9.27
2022-11-15T15:58:12.286Z,8.82
2022-11-15T16:00:39.923Z,9.23
2022-11-15T16:03:06.950Z,9.03
2022-11-15T16:05:34.018Z,9.03
2022-11-15T16:08:01.071Z,8.95
2022-11-15T16:10:30.687Z,9.09
2022-11-15T16:12:58.784Z,9.04
2022-11-15T16:15:29.323Z,8.99
2022-11-15T16:18:01.075Z,8.78
2022-11-15T16:20:50.593Z,8.82
2022-11-15T16:23:21.081Z,8.60
2022-11-15T16:25:54.356Z,8.53
2022-11-15T16:28:33.459Z,8.47
2022-11-15T16:31:04.202Z,8.33
2022-11-15T16:33:31.600Z,8.33
2022-11-15T16:35:58.931Z,8.23
2022-11-15T16:38:26.242Z,8.29
2022-11-15T16:40:53.277Z,8.31
2022-11-15T16:43:20.281Z,8.13
2022-11-15T16:45:47.348Z,8.21
2022-11-15T16:48:26.213Z,7.88
2022-11-15T16:50:57.539Z,8.23
2022-11-15T16:53:25.948Z,7.94
2022-11-15T16:55:53.262Z,8.01
2022-11-15T16:58:22.073Z,8.09
2022-11-15T17:00:57.145Z,8.08
2022-11-15T17:03:25.081Z,8.05
2022-11-15T17:05:52.255Z,8.09
2022-11-15T17:08:21.935Z,8.12
2022-11-15T17:10:49.105Z,8.09
2022-11-15T17:13:16.143Z,8.05
2022-11-15T17:15:43.514Z,8.12
2022-11-15T17:18:15.583Z,8.17
2022-11-15T17:20:43.550Z,8.08
2022-11-15T17:23:15.054Z,8.10
2022-11-15T17:25:42.405Z,8.09
2022-11-15T17:28:10.207Z,8.03
2022-11-15T17:30:37.110Z,7.83
2022-11-15T17:33:05.268Z,7.81
2022-11-15T17:35:32.212Z,7.89
2022-11-15T17:37:59.090Z,7.84
2022-11-15T17:40:26.047Z,7.59
2022-11-15T17:42:53.463Z,7.89
2022-11-15T17:45:20.343Z,7.91
2022-11-15T17:47:47.230Z,7.97
2022-11-15T17:50:14.646Z,7.87
2022-11-15T17:52:41.576Z,7.50
2022-11-15T17:55:08.863Z,7.84
2022-11-15T17:57:35.786Z,7.73
2022-11-15T18:00:03.117Z,7.86
2022-11-15T18:02:30.911Z,7.65
2022-11-15T18:04:57.873Z,7.57
2022-11-15T18:07:24.909Z,7.77
2022-11-15T18:09:51.875Z,7.67
2022-11-15T18:12:19.848Z,7.27
2022-11-15T18:14:46.809Z,7.64
2022-11-15T18:17:13.705Z,7.66
2022-11-15T18:19:40.675Z,7.65
2022-11-15T18:22:10.015Z,7.57
2022-11-15T18:24:38.736Z,7.64
2022-11-15T18:27:06.772Z,7.52
2022-11-15T18:29:35.640Z,7.52
2022-11-15T18:32:05.158Z,7.39
2022-11-15T18:34:34.090Z,7.53
2022-11-15T18:37:02.893Z,7.25
2022-11-15T18:39:30.437Z,7.25
2022-11-15T18:41:58.256Z,7.29
2022-11-15T18:44:25.473Z,7.15
2022-11-15T18:46:52.432Z,7.38
2022-11-15T18:49:20.510Z,7.37
2022-11-15T18:51:47.906Z,7.20
2022-11-15T18:54:16.323Z,7.29
2022-11-15T18:56:47.170Z,7.01
2022-11-15T18:59:15.410Z,7.16
2022-11-15T19:01:48.851Z,6.91
2022-11-15T19:04:18.777Z,7.17
2022-11-15T19:06:47.710Z,7.21
2022-11-15T19:09:16.552Z,7.11
2022-11-15T19:11:46.492Z,7.19
2022-11-15T19:14:16.571Z,7.21
2022-11-15T19:16:46.364Z,6.96
2022-11-15T19:19:15.798Z,7.21
2022-11-15T19:21:43.482Z,6.96
2022-11-15T19:24:13.631Z,6.72
2022-11-15T19:26:40.888Z,7.16
2022-11-15T19:29:12.335Z,6.85
2022-11-15T19:31:39.544Z,7.06
2022-11-15T19:34:07.222Z,7.06
2022-11-15T19:36:38.400Z,7.08
2022-11-15T19:39:10.002Z,6.88
2022-11-15T19:41:38.767Z,6.98
2022-11-15T19:44:06.824Z,7.02
2022-11-15T19:46:34.562Z,6.99
2022-11-15T19:49:01.905Z,7.03
2022-11-15T19:51:30.931Z,7.11
2022-11-15T19:54:06.511Z,7.04
2022-11-15T19:56:35.043Z,7.02
2022-11-15T19:59:02.913Z,6.83
2022-11-15T20:01:32.975Z,7.14
2022-11-15T20:04:00.909Z,6.93
2022-11-15T20:06:30.512Z,7.00
2022-11-15T20:08:57.988Z,6.99
2022-11-15T20:11:26.005Z,6.94
2022-11-15T20:14:02.234Z,7.15
2022-11-15T20:16:30.102Z,7.18
2022-11-15T20:18:57.085Z,7.10
2022-11-15T20:21:24.195Z,7.15
2022-11-15T20:23:51.893Z,7.03
2022-11-15T20:26:20.197Z,7.15
2022-11-15T20:28:48.340Z,6.95
2022-11-15T20:31:16.418Z,7.16
2022-11-15T20:33:43.550Z,6.92
2022-11-15T20:36:13.467Z,7.16
2022-11-15T20:38:40.564Z,7.03
2022-11-15T20:41:07.714Z,7.19
2022-11-15T20:43:34.982Z,6.86
2022-11-15T20:46:01.923Z,7.10
2022-11-15T20:48:29.120Z,7.15
2022-11-15T20:51:11.468Z,7.12
2022-11-15T20:53:38.511Z,6.85
2022-11-15T20:56:10.401Z,7.08
2022-11-15T20:58:37.857Z,7.02
2022-11-15T21:01:06.372Z,7.07
2022-11-15T21:03:33.823Z,7.11
2022-11-15T21:06:01.017Z,7.10
2022-11-15T21:08:28.143Z,7.12
2022-11-15T21:11:13.713Z,7.10
2022-11-15T21:13:40.637Z,7.14
2022-11-15T21:16:08.155Z,7.10
2022-11-15T21:18:35.295Z,7.21
2022-11-15T21:21:04.800Z,7.21
2022-11-15T21:23:31.890Z,7.12
2022-11-15T21:25:59.123Z,7.17
2022-11-15T21:28:26.388Z,6.99
2022-11-15T21:30:57.665Z,6.87
2022-11-15T21:33:27.522Z,7.03
2022-11-15T21:35:55.643Z,7.02
2022-11-15T21:38:24.213Z,7.03
2022-11-15T21:40:54.303Z,6.91
2022-11-15T21:43:21.546Z,7.06
2022-11-15T21:46:06.452Z,6.88
2022-11-15T21:48:35.515Z,7.00
2022-11-15T21:51:05.550Z,7.05
2022-11-15T21:53:33.374Z,7.05
2022-11-15T21:56:01.652Z,6.57
2022-11-15T21:58:29.434Z,7.04
2022-11-15T22:01:15.181Z,6.85
2022-11-15T22:03:42.890Z,7.01
2022-11-15T22:06:16.089Z,6.89
2022-11-15T22:08:45.761Z,6.78
2022-11-15T22:11:12.848Z,6.97
2022-11-15T22:13:40.061Z,6.86
2022-11-15T22:16:07.902Z,6.97
2022-11-15T22:18:35.044Z,7.03
2022-11-15T22:21:04.794Z,7.04
2022-11-15T22:23:33.293Z,7.02
2022-11-15T22:26:00.636Z,7.00
2022-11-15T22:28:27.808Z,6.99
2022-11-15T22:30:55.491Z,6.72
2022-11-15T22:33:25.039Z,7.01
2022-11-15T22:35:52.698Z,7.00
2022-11-15T22:38:20.170Z,6.80
2022-11-15T22:40:47.701Z,6.82
2022-11-15T22:43:16.973Z,6.99
2022-11-15T22:45:52.209Z,6.80
2022-11-15T22:48:21.436Z,6.67
2022-11-15T22:50:48.671Z,6.97
2022-11-15T22:53:15.600Z,6.99
2022-11-15T22:55:42.839Z,6.83
2022-11-15T22:58:09.983Z,7.08
2022-11-15T23:00:37.148Z,6.94
2022-11-15T23:03:04.612Z,7.01
2022-11-15T23:05:32.112Z,6.95
2022-11-15T23:07:59.132Z,6.97
2022-11-15T23:10:44.431Z,6.89
2022-11-15T23:13:17.572Z,6.77
2022-11-15T23:16:23.442Z,6.99
2022-11-15T23:18:52.018Z,6.94
2022-11-15T23:21:46.108Z,6.60
2022-11-15T23:24:14.222Z,6.93
2022-11-15T23:26:42.265Z,6.94
2022-11-15T23:29:10.962Z,6.50
2022-11-15T23:32:01.968Z,6.73
2022-11-15T23:34:31.434Z,6.96
2022-11-15T23:36:59.689Z,6.82
2022-11-15T23:39:26.802Z,6.85
2022-11-15T23:41:54.059Z,6.88
2022-11-15T23:44:21.425Z,6.99
2022-11-15T23:46:48.491Z,6.82
2022-11-15T23:49:15.637Z,6.65
2022-11-15T23:51:42.749Z,7.05
2022-11-15T23:54:10.058Z,7.04
2022-11-15T23:56:37.305Z,7.08
2022-11-15T23:59:05.091Z,6.95
